Williams, OR

1:26 AM PDT on August 30, 2014 (GMT -0700)
Sexton Summit | Change Station
CLOSE
Current Station
Airport
Location: Sexton Summit,
Elevation: 3839 ft
Nearby Weather Stations

Elev 3839 ft 42.60 °N, 123.36 °W | Updated 30 minutes ago

Clear
Clear
54 °F
Feels Like 54 °F
N
10
Wind Variable Wind from North

Today
High -- | Low -- °F
--% Chance of Precip.
Yesterday
High -- | Low -- °F
Precip. -- in
6:36 AM 7:50 PM
Waxing Crescent, 20% visible
Pressure 29.94 in
Visibility 10.0 miles
Clouds Clear
Dew Point 48 °F
Humidity 80%
Rainfall 0.00 in
Snow Depth Not available.
UV 0 out of 12
Pollen 6.50 out of 12
Air Quality Not available.
Flu Activity Not available.
METAR KSXT 300756Z AUTO 35009KT 10SM CLR 12/09 A3006 RMK AO2 SLP136 T01220089 402440122

More Conditions Fewer Conditions

Pressure 29.94 in
Visibility 10.0 miles
Clouds Clear
Dew Point 48 °F
Humidity 80%
Rainfall 0.00 in
Snow Depth Not available.
UV 0 out of 12
Pollen 6.50 out of 12
Air Quality Not available.
Flu Activity Not available.
METAR KSXT 300756Z AUTO 35009KT 10SM CLR 12/09 A3006 RMK AO2 SLP136 T01220089 402440122

More Conditions Fewer Conditions

10-Day Weather Forecast

Almanac

Astronomy

Aug. 30, 2014 Rise Set
Actual Time 6:36 AM PDT 7:50 PM PDT
Civil Twilight 6:07 AM PDT 8:18 PM PDT
Nautical Twilight 5:32 AM PDT 8:53 PM PDT
Astronomical Twilight 4:56 AM PDT 9:29 PM PDT
Moon 11:35 AM PDT 10:21 PM PDT
Length of Visible Light 14h 11m
Length of Day
13h 13m
Tomorrow will be 2m 43s shorter.
Waxing Crescent, 20% of the Moon is Illuminated
Today
Waxing Crescent
Sep 2
First Quarter
Sep 8
Full
Sep 15
Last Quarter
Sep 24
New

Today's Extremes

State Highs State Lows

Community

WunderPhotos

Upload Photos

1,748,472 photos uploaded!

Nearby

Snow Depth

Station Depth Elevation
Bigelow Camp 1 in 5120 ft
Big Red Mountain 0 in 6250 ft
Fish Lake 0 in 4665 ft
Billie Creek Divide 0 in 5300 ft
Fourmile Lake 2 in 6000 ft

Earthquake Activity

City Distance Mag. Time & Date
No recent earthquake activity has been reported nearby.
Minimum magnitude displayed is 2.5.

Coastal Water Temperatures

Place Temperature
No Stations Reporting

Nearby Weather Stations